createdAt,value
2023-01-04T00:04:13.283Z,94.31
2023-01-04T00:09:15.875Z,94.58
2023-01-04T00:14:19.171Z,94.44
2023-01-04T00:19:20.960Z,94.56
2023-01-04T00:24:22.705Z,94.38
2023-01-04T00:29:24.578Z,94.56
2023-01-04T00:34:31.892Z,94.80
2023-01-04T00:39:33.601Z,94.87
2023-01-04T00:44:35.625Z,94.97
2023-01-04T00:49:37.362Z,94.98
2023-01-04T00:54:39.046Z,95.19
2023-01-04T00:59:40.783Z,95.23
2023-01-04T01:04:42.708Z,95.40
2023-01-04T01:09:44.422Z,94.85
2023-01-04T01:14:46.213Z,94.58
2023-01-04T01:19:47.914Z,94.98
2023-01-04T01:24:50.023Z,95.48
2023-01-04T01:29:51.819Z,95.61
2023-01-04T01:34:53.512Z,95.92
2023-01-04T01:39:55.209Z,95.76
2023-01-04T01:44:59.584Z,95.72
2023-01-04T01:50:02.988Z,95.77
2023-01-04T01:55:09.239Z,96.34
2023-01-04T02:00:14.017Z,96.49
2023-01-04T02:05:19.423Z,96.42
2023-01-04T02:10:21.253Z,96.47
2023-01-04T02:15:28.420Z,96.30
2023-01-04T02:20:36.546Z,96.44
2023-01-04T02:26:05.873Z,96.50
2023-01-04T02:31:29.560Z,96.55
2023-01-04T02:36:48.143Z,96.61
2023-01-04T02:41:54.494Z,96.68
2023-01-04T02:47:40.238Z,96.78
2023-01-04T02:52:42.014Z,96.96
2023-01-04T02:58:02.405Z,96.94
2023-01-04T03:03:36.405Z,97.14
2023-01-04T03:08:49.201Z,97.02
2023-01-04T03:13:51.014Z,96.93
2023-01-04T03:18:57.830Z,97.07
2023-01-04T03:24:20.224Z,96.92
2023-01-04T03:30:08.515Z,96.98
2023-01-04T03:35:22.904Z,97.01
2023-01-04T03:40:50.719Z,97.10
2023-01-04T03:46:16.287Z,97.26
2023-01-04T03:51:23.516Z,97.31
2023-01-04T03:56:29.347Z,97.47
2023-01-04T04:01:31.725Z,97.55
2023-01-04T04:06:52.337Z,97.63
2023-01-04T04:11:53.971Z,97.98
2023-01-04T04:16:55.778Z,97.73
2023-01-04T04:21:57.520Z,97.94
2023-01-04T04:26:59.231Z,98.06
2023-01-04T04:32:01.217Z,98.16
2023-01-04T04:37:03.552Z,98.37
2023-01-04T04:42:05.318Z,98.37
2023-01-04T04:47:07.046Z,98.92
2023-01-04T04:52:08.775Z,98.81
2023-01-04T04:57:10.473Z,98.81
2023-01-04T05:02:12.254Z,98.89
2023-01-04T05:07:14.188Z,98.98
2023-01-04T05:12:34.622Z,99.04
2023-01-04T05:17:36.459Z,99.26
2023-01-04T05:22:38.161Z,99.77
2023-01-04T05:27:40.611Z,99.90
2023-01-04T05:32:42.302Z,100.00
2023-01-04T05:37:44.075Z,100.00
2023-01-04T05:42:45.968Z,100.00
2023-01-04T05:47:51.961Z,100.00
2023-01-04T05:52:53.674Z,100.00
2023-01-04T05:57:55.602Z,100.00
2023-01-04T06:02:57.464Z,100.00
2023-01-04T06:07:59.282Z,100.00
2023-01-04T06:13:01.020Z,100.00
2023-01-04T06:18:02.722Z,100.00
2023-01-04T06:23:04.391Z,100.00
2023-01-04T06:28:06.067Z,100.00
2023-01-04T06:33:07.744Z,100.00
2023-01-04T06:38:09.466Z,100.00
2023-01-04T06:43:11.296Z,100.00
2023-01-04T06:48:18.101Z,100.00
2023-01-04T06:53:20.415Z,100.00
2023-01-04T06:58:22.099Z,100.00
2023-01-04T07:03:23.903Z,100.00
2023-01-04T07:08:26.012Z,100.00
2023-01-04T07:13:27.734Z,100.00
2023-01-04T07:18:29.485Z,100.00
2023-01-04T07:23:31.195Z,100.00
2023-01-04T07:28:51.587Z,100.00
2023-01-04T07:33:53.370Z,100.00
2023-01-04T07:38:55.204Z,100.00
2023-01-04T07:43:56.966Z,100.00
2023-01-04T07:48:58.854Z,100.00
2023-01-04T07:54:00.544Z,100.00
2023-01-04T07:59:02.483Z,100.00
2023-01-04T08:04:06.275Z,100.00
2023-01-04T08:09:08.708Z,100.00
2023-01-04T08:14:10.941Z,100.00
2023-01-04T08:19:18.487Z,100.00
2023-01-04T08:24:20.273Z,100.00
2023-01-04T08:29:21.959Z,100.00
2023-01-04T08:34:23.614Z,100.00
2023-01-04T08:39:25.456Z,100.00
2023-01-04T08:44:27.361Z,100.00
2023-01-04T08:49:29.892Z,100.00
2023-01-04T08:54:32.963Z,100.00
2023-01-04T08:59:34.730Z,100.00
2023-01-04T09:04:36.494Z,100.00
2023-01-04T09:09:38.281Z,99.89
2023-01-04T09:14:40.060Z,98.94
2023-01-04T09:19:41.829Z,98.23
2023-01-04T09:24:43.688Z,97.79
2023-01-04T09:29:45.439Z,97.38
2023-01-04T09:34:47.348Z,97.41
2023-01-04T09:39:49.129Z,97.07
2023-01-04T09:45:22.589Z,96.80
2023-01-04T09:50:36.667Z,96.78
2023-01-04T09:55:48.072Z,96.87
2023-01-04T10:01:15.128Z,96.21
2023-01-04T10:06:17.052Z,95.78
2023-01-04T10:11:34.054Z,96.01
2023-01-04T10:17:12.648Z,95.48
2023-01-04T10:22:27.591Z,94.96
2023-01-04T10:27:44.715Z,94.84
2023-01-04T10:32:55.554Z,95.00
2023-01-04T10:38:10.277Z,94.90
2023-01-04T10:44:09.591Z,94.70
2023-01-04T10:49:16.164Z,93.04
2023-01-04T10:54:33.249Z,93.12
2023-01-04T10:59:51.124Z,92.69
2023-01-04T11:05:09.556Z,91.95
2023-01-04T11:10:18.371Z,91.95
2023-01-04T11:15:20.515Z,91.53
2023-01-04T11:20:26.749Z,91.11
2023-01-04T11:25:36.755Z,90.20
2023-01-04T11:30:48.645Z,89.53
2023-01-04T11:35:53.289Z,89.20
2023-01-04T11:41:07.042Z,88.83
2023-01-04T11:46:22.591Z,88.44
2023-01-04T11:51:27.244Z,88.42
2023-01-04T11:56:31.174Z,88.05
2023-01-04T12:01:36.624Z,88.14
2023-01-04T12:06:48.512Z,87.18
2023-01-04T12:11:56.633Z,87.20
2023-01-04T12:17:13.604Z,87.32
2023-01-04T12:22:38.963Z,87.32
2023-01-04T12:27:47.892Z,87.13
2023-01-04T12:32:49.741Z,87.12
2023-01-04T12:37:51.561Z,87.22
2023-01-04T12:43:14.954Z,87.47
2023-01-04T12:48:47.766Z,87.18
2023-01-04T12:54:32.121Z,86.53
2023-01-04T12:59:36.696Z,86.58
2023-01-04T13:04:41.334Z,86.73
2023-01-04T13:09:50.276Z,87.21
2023-01-04T13:14:59.034Z,87.21
2023-01-04T13:20:13.874Z,87.40
2023-01-04T13:25:17.226Z,87.41
2023-01-04T13:30:37.463Z,87.51
2023-01-04T13:35:39.307Z,87.78
2023-01-04T13:40:49.273Z,87.71
2023-01-04T13:46:03.812Z,87.60
2023-01-04T13:51:37.778Z,87.97
2023-01-04T13:56:40.009Z,88.24
2023-01-04T14:01:45.542Z,88.55
2023-01-04T14:06:49.851Z,88.58
2023-01-04T14:12:09.165Z,88.91
2023-01-04T14:17:20.399Z,89.08
2023-01-04T14:22:34.365Z,89.47
2023-01-04T14:27:37.318Z,89.79
2023-01-04T14:32:39.192Z,89.74
2023-01-04T14:37:41.320Z,90.11
2023-01-04T14:42:43.053Z,89.98
2023-01-04T14:47:44.876Z,89.99
2023-01-04T14:52:54.118Z,90.98
2023-01-04T14:57:55.971Z,91.90
2023-01-04T15:02:57.991Z,92.27
2023-01-04T15:08:01.526Z,93.20
2023-01-04T15:13:04.387Z,94.63
2023-01-04T15:18:06.780Z,95.39
2023-01-04T15:23:09.370Z,96.94
2023-01-04T15:28:11.126Z,97.95
2023-01-04T15:33:13.137Z,99.42
2023-01-04T15:38:18.471Z,100.00
2023-01-04T15:43:20.464Z,100.00
2023-01-04T15:48:22.337Z,100.00
2023-01-04T15:53:24.060Z,100.00
2023-01-04T15:58:25.911Z,100.00
2023-01-04T16:03:27.639Z,100.00
2023-01-04T16:08:31.169Z,100.00
2023-01-04T16:13:33.124Z,100.00
2023-01-04T16:18:35.482Z,100.00
2023-01-04T16:23:37.677Z,100.00
2023-01-04T16:28:39.901Z,100.00
2023-01-04T16:33:42.512Z,100.00
2023-01-04T16:38:45.738Z,100.00
2023-01-04T16:43:50.932Z,100.00
2023-01-04T16:48:59.128Z,100.00
2023-01-04T16:54:06.923Z,100.00
2023-01-04T16:59:08.963Z,100.00
2023-01-04T17:04:11.269Z,100.00
2023-01-04T17:09:15.676Z,100.00
2023-01-04T17:14:17.453Z,100.00
2023-01-04T17:19:19.732Z,100.00
2023-01-04T17:24:21.541Z,100.00
2023-01-04T17:29:23.353Z,100.00
2023-01-04T17:34:25.288Z,100.00
2023-01-04T17:39:30.909Z,100.00
2023-01-04T17:44:32.621Z,100.00
2023-01-04T17:49:34.383Z,100.00
2023-01-04T17:54:36.231Z,100.00
2023-01-04T17:59:38.120Z,99.98
2023-01-04T18:04:39.970Z,99.96
2023-01-04T18:09:41.742Z,99.76
2023-01-04T18:14:46.434Z,99.64
2023-01-04T18:19:48.919Z,99.70
2023-01-04T18:24:50.673Z,99.44
2023-01-04T18:29:54.516Z,99.47
2023-01-04T18:34:56.299Z,99.13
2023-01-04T18:39:58.141Z,98.89
2023-01-04T18:44:59.969Z,98.74
2023-01-04T18:50:02.352Z,98.22
2023-01-04T18:55:04.435Z,98.30
2023-01-04T19:00:09.205Z,98.06
2023-01-04T19:05:12.392Z,97.71
2023-01-04T19:10:14.162Z,97.93
2023-01-04T19:15:16.152Z,97.88
2023-01-04T19:20:18.097Z,98.17
2023-01-04T19:25:24.598Z,97.90
2023-01-04T19:30:30.214Z,98.00
2023-01-04T19:35:32.240Z,97.77
2023-01-04T19:40:34.315Z,97.68
2023-01-04T19:45:40.027Z,97.96
2023-01-04T19:50:41.894Z,97.56
2023-01-04T19:55:43.674Z,97.91
2023-01-04T20:00:54.286Z,97.67
2023-01-04T20:06:02.212Z,97.62
2023-01-04T20:11:05.213Z,97.74
2023-01-04T20:16:08.398Z,97.69
2023-01-04T20:21:12.742Z,97.46
2023-01-04T20:26:17.390Z,97.64
2023-01-04T20:31:19.609Z,97.33
2023-01-04T20:36:26.274Z,97.52
2023-01-04T20:41:32.568Z,97.46
2023-01-04T20:46:34.369Z,97.39
2023-01-04T20:51:36.181Z,97.34
2023-01-04T20:56:38.981Z,97.32
2023-01-04T21:01:40.818Z,97.38
2023-01-04T21:06:42.855Z,97.82
2023-01-04T21:11:44.640Z,97.87
2023-01-04T21:16:46.469Z,97.88
2023-01-04T21:21:48.289Z,98.01
2023-01-04T21:26:50.180Z,98.23
2023-01-04T21:31:51.905Z,98.10
2023-01-04T21:36:54.008Z,97.92
2023-01-04T21:41:55.830Z,97.84
2023-01-04T21:46:57.569Z,97.94
2023-01-04T21:51:59.417Z,98.56
2023-01-04T21:57:01.586Z,99.23
2023-01-04T22:02:03.693Z,99.21
2023-01-04T22:07:05.708Z,99.71
2023-01-04T22:12:11.666Z,99.50
2023-01-04T22:17:13.470Z,99.60
2023-01-04T22:22:15.270Z,99.71
2023-01-04T22:27:16.965Z,99.65
2023-01-04T22:32:18.666Z,99.78
2023-01-04T22:37:20.493Z,99.64
2023-01-04T22:42:22.254Z,99.85
2023-01-04T22:47:24.056Z,99.96
2023-01-04T22:52:25.777Z,100.00
2023-01-04T22:57:27.493Z,100.00
2023-01-04T23:02:29.339Z,100.00
2023-01-04T23:07:31.198Z,100.00
2023-01-04T23:12:33.070Z,100.00
2023-01-04T23:17:34.821Z,100.00
2023-01-04T23:22:36.583Z,100.00
2023-01-04T23:27:38.294Z,100.00
2023-01-04T23:32:40.108Z,100.00
2023-01-04T23:37:41.979Z,100.00
2023-01-04T23:42:43.696Z,100.00
2023-01-04T23:47:48.332Z,100.00
2023-01-04T23:52:50.084Z,100.00
2023-01-04T23:57:53.554Z,100.00
